Date,TemperatureHighF,TemperatureAvgF,TemperatureLowF,DewpointHighF,DewpointAvgF,DewpointLowF,HumidityHigh,HumidityAvg,HumidityLow,PressureMaxIn,PressureMinIn,WindSpeedMaxMPH,WindSpeedAvgMPH,GustSpeedMaxMPH,PrecipitationSumIn
2013-10-1,79.5,63.2,51.1,61.9,54.1,41.9,81,73,48,29.90,29.71,11,0,13,0.00
2013-10-2,80.1,65.4,58.6,61.9,55.2,50.0,82,71,47,29.87,29.68,11,1,14,0.04
2013-10-3,81.0,64.1,51.4,58.1,51.0,41.9,83,65,34,29.89,29.70,11,1,11,0.01
2013-10-4,81.5,62.9,47.5,57.4,49.4,39.2,83,64,33,29.91,29.76,8,1,12,0.00
2013-10-5,82.6,63.5,45.7,58.3,48.1,39.4,83,61,27,29.93,29.75,10,1,12,0.00
2013-10-6,80.1,63.2,48.7,59.2,51.8,43.7,83,68,38,29.91,29.75,12,1,15,0.00
2013-10-7,70.3,60.2,52.5,58.8,53.8,47.5,84,80,62,29.99,29.84,10,1,15,0.15
2013-10-8,77.9,58.4,45.5,58.5,48.0,37.4,84,69,43,30.07,29.85,8,1,9,0.01
2013-10-9,79.0,61.6,45.3,57.0,49.5,39.9,84,67,40,29.97,29.77,8,1,10,0.00
2013-10-10,81.7,63.1,46.0,59.0,50.2,40.3,84,65,38,29.95,29.74,10,0,10,0.00
2013-10-11,80.4,66.3,57.9,63.1,56.6,50.5,84,72,47,29.84,29.63,10,0,10,0.05
2013-10-12,82.0,66.0,58.3,63.0,55.4,48.9,84,69,43,29.87,29.70,9,0,10,0.02
2013-10-13,80.2,66.4,56.5,60.8,54.9,48.7,85,69,36,29.94,29.76,14,1,15,0.00
2013-10-14,81.3,63.5,47.5,57.4,50.6,40.1,85,66,30,29.97,29.75,14,1,20,0.01
2013-10-15,81.0,63.0,47.3,56.3,50.4,39.7,85,66,37,29.95,29.75,8,0,10,0.00
2013-10-16,82.2,64.3,47.1,59.4,51.3,41.9,86,65,37,29.91,29.72,8,1,10,0.00
2013-10-17,81.0,63.2,50.5,59.9,53.0,43.5,86,71,44,29.92,29.70,7,0,9,0.00
2013-10-18,79.5,64.8,55.4,64.4,56.2,49.3,86,75,49,29.86,29.66,12,-3,14,0.14
2013-10-19,77.5,61.9,50.5,61.7,53.7,43.5,86,75,50,29.94,29.72,10,0,11,1.23
2013-10-20,73.0,61.8,55.9,60.4,52.7,46.4,86,73,56,29.94,29.72,2,0,3,0.07
2013-10-21,76.6,64.0,55.8,61.0,55.0,47.8,86,73,53,29.85,29.70,6,0,8,0.00
2013-10-22,66.9,59.2,53.2,58.5,53.2,48.2,87,81,72,30.00,29.80,15,2,15,0.00
2013-10-23,62.2,53.8,48.6,50.7,47.3,44.4,88,79,61,30.09,29.94,10,1,10,0.00
2013-10-24,72.9,54.7,41.4,48.6,42.3,37.2,88,66,38,30.16,29.98,15,1,15,0.00
2013-10-25,74.1,53.7,38.5,53.2,44.0,34.7,88,73,39,30.19,30.00,13,2,15,0.00
2013-10-26,72.1,59.6,49.6,58.3,52.5,45.7,88,78,59,30.15,29.89,22,2,22,0.00
2013-10-27,75.0,59.9,48.2,59.0,52.2,42.4,87,77,54,30.01,29.81,11,2,13,0.00
2013-10-28,80.1,61.3,48.6,60.4,52.0,41.5,86,73,47,30.01,29.80,13,1,13,0.01
2013-10-29,81.0,61.7,48.6,62.2,53.2,42.1,87,75,47,30.01,29.78,10,1,14,0.01
2013-10-30,78.4,63.6,51.8,60.8,55.2,46.4,87,75,52,29.95,29.71,11,1,11,0.19
2013-10-31,75.9,64.2,54.9,63.5,55.8,47.7,87,75,58,29.90,29.74,9,0,11,0.01